Time;durP1;ratioP1;P1;durP2;ratioP2;P2;SDS_P1;SDS_P2;PMS_P1;PMS_P2;Temp;Humidity;BMP_temperature;BMP_pressure;BME280_temperature;BME280_humidity;BME280_pressure;Samples;Min_cycle;Max_cycle;Signal;HPM_P1;HPM_P2
2021/09/15 00:02:09;;;;;;;0.80;0.40;;;15.30;99.90;;;;;;4883400;29;20463;-70
2021/09/15 00:04:37;;;;;;;0.80;0.40;;;15.30;99.90;;;;;;4861424;29;20450;-68
2021/09/15 00:07:07;;;;;;;0.80;0.40;;;15.30;99.90;;;;;;4877655;29;20470;-67
2021/09/15 00:09:35;;;;;;;0.80;0.40;;;15.40;99.90;;;;;;4863523;29;20546;-71
2021/09/15 00:12:04;;;;;;;0.80;0.40;;;15.40;99.90;;;;;;4864643;29;20467;-71
2021/09/15 00:14:32;;;;;;;0.80;0.40;;;15.40;99.90;;;;;;4878570;29;20792;-67
2021/09/15 00:17:00;;;;;;;1.27;1.17;;;15.40;99.90;;;;;;4877190;29;20512;-67
2021/09/15 00:19:28;;;;;;;0.80;0.40;;;15.40;99.90;;;;;;4877419;29;20423;-66
2021/09/15 00:21:56;;;;;;;0.80;0.40;;;15.40;99.90;;;;;;4877816;29;20430;-67
2021/09/15 00:24:26;;;;;;;0.80;0.40;;;15.40;99.90;;;;;;4878378;29;20413;-67
2021/09/15 00:26:54;;;;;;;0.80;0.40;;;15.40;99.90;;;;;;4876939;29;20406;-70
2021/09/15 00:29:23;;;;;;;0.80;0.40;;;15.40;99.90;;;;;;4876321;29;20482;-69
2021/09/15 00:31:51;;;;;;;0.80;0.40;;;15.50;99.90;;;;;;4876320;29;20451;-67
2021/09/15 00:34:19;;;;;;;0.80;0.40;;;15.50;99.90;;;;;;4876645;29;20406;-67
2021/09/15 00:36:47;;;;;;;0.80;0.40;;;15.60;99.90;;;;;;4859490;29;20521;-67
2021/09/15 00:39:15;;;;;;;0.80;0.40;;;15.60;99.90;;;;;;4877354;29;20402;-67
2021/09/15 00:41:45;;;;;;;0.80;0.40;;;15.60;99.90;;;;;;4876934;29;20417;-67
2021/09/15 00:44:14;;;;;;;0.80;0.40;;;15.60;99.90;;;;;;4877353;29;20495;-69
2021/09/15 00:46:43;;;;;;;0.80;0.40;;;15.50;99.90;;;;;;4860172;29;20406;-68
2021/09/15 00:49:12;;;;;;;0.80;0.50;;;15.50;99.90;;;;;;4877043;29;20475;-68
2021/09/15 00:51:41;;;;;;;0.80;0.40;;;15.50;99.90;;;;;;4859234;29;20421;-67
2021/09/15 00:54:12;;;;;;;0.80;0.40;;;15.50;99.90;;;;;;4876495;29;20431;-69
2021/09/15 00:56:41;;;;;;;0.80;0.40;;;15.50;99.90;;;;;;4876594;29;20386;-70
2021/09/15 00:59:12;;;;;;;0.80;0.40;;;15.40;99.90;;;;;;4875993;29;21007;-68
2021/09/15 01:01:40;;;;;;;0.80;0.50;;;15.50;99.90;;;;;;4859215;29;20443;-70
2021/09/15 01:04:11;;;;;;;0.80;0.40;;;15.50;99.90;;;;;;4876768;29;20574;-67
2021/09/15 01:06:45;;;;;;;0.80;0.40;;;15.50;99.90;;;;;;4859445;29;20837;-71
2021/09/15 01:09:14;;;;;;;0.80;0.50;;;15.50;99.90;;;;;;4876042;29;20525;-66
2021/09/15 01:11:44;;;;;;;0.80;0.40;;;15.60;99.90;;;;;;4858922;29;20814;-70
2021/09/15 01:14:23;;;;;;;0.80;0.40;;;15.60;99.90;;;;;;4859175;29;20450;-69
2021/09/15 01:17:10;;;;;;;0.80;0.40;;;15.70;99.90;;;;;;4874898;29;20925;-68
2021/09/15 01:20:01;;;;;;;0.80;0.40;;;15.70;99.90;;;;;;4869900;29;20495;-66
2021/09/15 01:22:51;;;;;;;0.80;0.40;;;15.70;99.90;;;;;;4874489;29;20525;-71
2021/09/15 01:25:36;;;;;;;0.80;0.40;;;15.70;99.90;;;;;;4875625;29;20397;-69
2021/09/15 01:28:31;;;;;;;0.80;0.40;;;15.70;99.90;;;;;;4858368;29;20479;-68
2021/09/15 01:31:05;;;;;;;0.80;0.40;;;15.70;99.90;;;;;;4858533;29;20473;-65
2021/09/15 01:33:34;;;;;;;0.80;0.40;;;15.80;99.90;;;;;;4858129;29;20438;-71
2021/09/15 01:36:02;;;;;;;0.80;0.40;;;15.90;99.90;;;;;;4875057;29;20406;-68
2021/09/15 01:38:34;;;;;;;0.80;0.40;;;15.90;99.90;;;;;;4874525;29;20534;-66
2021/09/15 01:41:02;;;;;;;0.80;0.40;;;15.90;99.90;;;;;;4858071;29;20458;-69
2021/09/15 01:43:31;;;;;;;0.80;0.40;;;15.90;99.90;;;;;;4858300;29;20463;-66
2021/09/15 01:45:59;;;;;;;0.80;0.40;;;15.90;99.90;;;;;;4875028;29;20402;-67
2021/09/15 01:48:27;;;;;;;0.80;0.40;;;15.80;99.90;;;;;;4857964;29;20446;-66
2021/09/15 01:50:56;;;;;;;0.80;0.40;;;15.80;99.90;;;;;;4858928;29;20509;-70
2021/09/15 01:53:24;;;;;;;0.80;0.40;;;15.70;99.90;;;;;;4859472;29;20445;-70
2021/09/15 01:55:54;;;;;;;0.80;0.40;;;15.70;99.90;;;;;;4860376;29;20478;-69
2021/09/15 01:58:31;;;;;;;0.80;0.50;;;15.60;99.90;;;;;;4877537;29;20502;-68
2021/09/15 02:01:06;;;;;;;0.80;0.40;;;15.50;99.90;;;;;;4874748;29;20420;-68
2021/09/15 02:03:52;;;;;;;0.80;0.40;;;15.60;99.90;;;;;;4874989;29;21364;-68
2021/09/15 02:06:36;;;;;;;0.80;0.40;;;15.50;99.90;;;;;;4858036;29;20942;-67
2021/09/15 02:09:17;;;;;;;0.80;0.40;;;15.50;99.90;;;;;;4885370;23;20502;-72
2021/09/15 02:11:57;;;;;;;0.83;0.50;;;15.50;99.90;;;;;;4852375;29;20471;-72
2021/09/15 02:14:25;;;;;;;0.80;0.40;;;15.60;99.90;;;;;;4857828;29;20422;-71
2021/09/15 02:16:53;;;;;;;0.80;0.40;;;15.50;99.90;;;;;;4857350;29;20796;-71
2021/09/15 02:19:23;;;;;;;0.80;0.40;;;15.60;99.90;;;;;;4872717;29;20439;-72
2021/09/15 02:22:08;;;;;;;0.80;0.40;;;15.50;99.90;;;;;;4857657;29;20445;-71
2021/09/15 02:24:49;;;;;;;0.80;0.50;;;15.50;99.90;;;;;;4857453;29;20458;-71
2021/09/15 02:27:50;;;;;;;0.80;0.50;;;15.60;99.90;;;;;;4857885;29;20455;-71
2021/09/15 02:30:27;;;;;;;0.80;0.50;;;15.60;99.90;;;;;;4857474;29;20521;-71
2021/09/15 02:33:00;;;;;;;0.80;0.40;;;15.60;99.90;;;;;;4858060;29;20447;-72
2021/09/15 02:35:43;;;;;;;0.80;0.40;;;15.60;99.90;;;;;;4873487;29;20421;-71
2021/09/15 02:38:23;;;;;;;0.80;0.50;;;15.70;99.90;;;;;;4857273;29;20438;-71
2021/09/15 02:41:14;;;;;;;0.80;0.40;;;15.80;99.90;;;;;;4857875;29;20516;-72
2021/09/15 02:43:55;;;;;;;0.80;0.40;;;15.80;99.90;;;;;;4872610;29;20510;-71
2021/09/15 02:46:41;;;;;;;0.80;0.50;;;15.90;99.90;;;;;;4872814;29;20464;-71
2021/09/15 02:49:27;;;;;;;0.80;0.40;;;16.00;99.90;;;;;;4857108;29;20931;-72
2021/09/15 02:52:06;;;;;;;0.80;0.40;;;16.00;99.90;;;;;;4873770;29;20410;-72
2021/09/15 02:54:47;;;;;;;0.80;0.40;;;16.00;99.90;;;;;;4876281;29;20858;-72
2021/09/15 02:57:23;;;;;;;0.80;0.40;;;16.00;99.90;;;;;;4876464;29;20443;-72
2021/09/15 03:00:04;;;;;;;0.80;0.40;;;16.00;99.90;;;;;;4875915;29;20467;-71
2021/09/15 03:02:45;;;;;;;0.80;0.40;;;16.00;99.90;;;;;;4860594;29;20439;-71
2021/09/15 03:05:38;;;;;;;0.83;0.60;;;16.00;99.90;;;;;;4876115;29;20448;-71
2021/09/15 03:08:25;;;;;;;0.80;0.40;;;15.90;99.90;;;;;;4866286;29;20436;-71
2021/09/15 03:10:53;;;;;;;0.80;0.40;;;15.90;99.90;;;;;;4863729;29;20457;-70
2021/09/15 03:13:21;;;;;;;0.80;0.40;;;15.80;99.90;;;;;;4880077;29;20466;-72
2021/09/15 03:15:51;;;;;;;0.80;0.40;;;15.80;99.90;;;;;;4879021;29;20426;-72
2021/09/15 03:18:19;;;;;;;0.80;0.40;;;15.90;99.90;;;;;;4879853;29;20929;-72
2021/09/15 03:20:47;;;;;;;0.80;0.40;;;15.90;99.90;;;;;;4878997;29;20413;-72
2021/09/15 03:23:15;;;;;;;0.80;0.40;;;15.90;99.90;;;;;;4880523;29;20401;-72
2021/09/15 03:25:44;;;;;;;0.80;0.40;;;15.90;99.90;;;;;;4894482;29;20470;-72
2021/09/15 03:28:12;;;;;;;0.80;0.40;;;16.00;99.90;;;;;;4894261;29;20485;-72
2021/09/15 03:30:40;;;;;;;0.80;0.40;;;16.00;99.90;;;;;;4894447;29;21013;-71
2021/09/15 03:33:10;;;;;;;0.80;0.40;;;16.00;99.90;;;;;;4863831;29;20440;-71
2021/09/15 03:35:38;;;;;;;0.80;0.40;;;16.00;99.90;;;;;;4895036;29;20930;-71
2021/09/15 03:38:06;;;;;;;0.80;0.40;;;16.00;99.90;;;;;;4905189;29;20435;-71
2021/09/15 03:40:34;;;;;;;0.80;0.40;;;16.00;99.90;;;;;;4918885;29;20427;-72
2021/09/15 03:43:02;;;;;;;0.80;0.40;;;16.00;99.90;;;;;;4918723;29;20405;-71
2021/09/15 03:45:31;;;;;;;0.80;0.40;;;16.00;99.90;;;;;;4902867;29;20436;-72
2021/09/15 03:47:59;;;;;;;0.80;0.40;;;16.00;99.90;;;;;;4902446;29;20458;-72
2021/09/15 03:50:29;;;;;;;0.80;0.40;;;15.90;99.90;;;;;;4886667;29;20554;-73
2021/09/15 03:52:57;;;;;;;1.00;0.87;;;15.90;99.90;;;;;;4903028;29;20423;-72
2021/09/15 03:55:25;;;;;;;0.80;0.40;;;15.90;99.90;;;;;;4886975;29;20497;-72
2021/09/15 03:57:53;;;;;;;0.80;0.40;;;15.80;99.90;;;;;;4912994;29;20424;-71
2021/09/15 04:00:22;;;;;;;0.80;0.40;;;15.90;99.90;;;;;;4879863;29;20447;-72
2021/09/15 04:02:57;;;;;;;0.80;0.40;;;15.80;99.90;;;;;;4911348;29;20418;-72
2021/09/15 04:05:32;;;;;;;0.80;0.40;;;15.90;99.90;;;;;;4896119;29;20406;-72
2021/09/15 04:08:00;;;;;;;0.80;0.40;;;15.90;99.90;;;;;;4879781;29;20402;-72
2021/09/15 04:10:28;;;;;;;0.80;0.50;;;15.90;99.90;;;;;;4879570;29;20525;-72
2021/09/15 04:12:58;;;;;;;0.80;0.40;;;16.00;99.90;;;;;;4894332;29;20446;-72
2021/09/15 04:15:30;;;;;;;0.80;0.40;;;16.00;99.90;;;;;;4880868;29;20478;-71
2021/09/15 04:17:58;;;;;;;15.73;2.00;;;16.00;99.90;;;;;;4910302;29;20438;-71
2021/09/15 04:20:26;;;;;;;0.80;0.40;;;16.00;99.90;;;;;;4881569;29;20418;-72
2021/09/15 04:22:56;;;;;;;0.80;0.40;;;16.00;99.90;;;;;;4895641;29;20442;-71
2021/09/15 04:33:43;;;;;;;2.70;0.70;;;16.00;99.90;;;;;;4893769;29;20459;-71
2021/09/15 04:36:12;;;;;;;0.80;0.40;;;16.00;99.90;;;;;;4893377;29;20430;-72
2021/09/15 04:38:41;;;;;;;0.80;0.40;;;16.00;99.90;;;;;;4878653;29;20449;-72
2021/09/15 04:41:12;;;;;;;0.80;0.40;;;16.00;99.90;;;;;;4893281;29;20436;-72
2021/09/15 04:43:43;;;;;;;0.80;0.40;;;16.00;99.90;;;;;;4893600;29;20422;-71
2021/09/15 04:46:11;;;;;;;0.87;0.50;;;16.10;99.90;;;;;;4862318;29;20429;-72
2021/09/15 04:48:39;;;;;;;0.80;0.50;;;16.10;99.90;;;;;;4862336;29;20589;-72
2021/09/15 04:51:13;;;;;;;0.80;0.40;;;16.20;99.90;;;;;;4894423;29;20471;-72
2021/09/15 04:53:45;;;;;;;0.80;0.40;;;16.20;99.90;;;;;;4893429;29;20406;-72
2021/09/15 04:56:13;;;;;;;0.80;0.50;;;16.20;99.90;;;;;;4878551;29;20455;-72
2021/09/15 04:58:41;;;;;;;0.80;0.40;;;16.20;99.90;;;;;;4892700;29;20434;-72
2021/09/15 05:01:10;;;;;;;0.80;0.50;;;16.20;99.90;;;;;;4879043;29;20435;-72
2021/09/15 05:03:39;;;;;;;0.80;0.40;;;16.20;99.90;;;;;;4877589;29;20777;-72
2021/09/15 05:06:09;;;;;;;0.80;0.40;;;16.20;99.90;;;;;;4864143;29;20439;-74
2021/09/15 05:08:37;;;;;;;0.80;0.40;;;16.20;99.90;;;;;;4897532;29;20453;-73
2021/09/15 05:11:06;;;;;;;0.80;0.40;;;16.20;99.90;;;;;;4867917;29;20454;-74
2021/09/15 05:13:35;;;;;;;0.80;0.40;;;16.20;99.90;;;;;;4883040;29;20470;-73
2021/09/15 05:16:03;;;;;;;0.80;0.40;;;16.30;99.90;;;;;;4883208;29;20470;-73
2021/09/15 05:18:33;;;;;;;0.80;0.50;;;16.30;99.90;;;;;;4896040;29;20449;-73
2021/09/15 05:21:03;;;;;;;0.80;0.50;;;16.30;99.90;;;;;;4881079;29;20936;-72
2021/09/15 05:23:31;;;;;;;0.80;0.40;;;16.30;99.90;;;;;;4894423;29;20410;-72
2021/09/15 05:26:06;;;;;;;0.80;0.40;;;16.30;99.90;;;;;;4876979;29;20814;-73
2021/09/15 05:28:34;;;;;;;0.80;0.40;;;16.40;99.90;;;;;;4891568;29;20434;-73
2021/09/15 05:31:02;;;;;;;0.80;0.40;;;16.30;99.90;;;;;;4860232;29;20438;-72
2021/09/15 05:33:32;;;;;;;0.80;0.40;;;16.40;99.90;;;;;;4876824;29;20474;-72
2021/09/15 05:36:00;;;;;;;0.80;0.40;;;16.40;99.90;;;;;;4858719;29;20494;-71
2021/09/15 05:38:28;;;;;;;0.90;0.50;;;16.50;99.90;;;;;;4879471;29;20527;-71
2021/09/15 05:41:13;;;;;;;0.80;0.40;;;16.50;99.90;;;;;;4891771;29;20409;-72
2021/09/15 05:43:42;;;;;;;0.80;0.40;;;16.50;99.90;;;;;;4861129;29;20471;-71
2021/09/15 05:46:14;;;;;;;1.30;0.93;;;16.50;99.90;;;;;;4861806;29;20428;-71
2021/09/15 05:48:42;;;;;;;0.87;0.40;;;16.60;99.90;;;;;;4877583;29;20458;-72
2021/09/15 05:51:10;;;;;;;0.90;0.50;;;16.60;99.90;;;;;;4859469;29;20600;-71
2021/09/15 05:53:40;;;;;;;0.90;0.40;;;16.80;99.90;;;;;;4861183;29;20441;-72
2021/09/15 05:56:08;;;;;;;0.90;0.50;;;16.80;99.90;;;;;;4860532;29;20451;-72
2021/09/15 05:58:37;;;;;;;0.90;0.50;;;16.90;99.90;;;;;;4877503;29;20447;-75
2021/09/15 06:01:08;;;;;;;0.90;0.40;;;17.00;99.90;;;;;;4861703;29;20936;-71
2021/09/15 06:03:37;;;;;;;0.90;0.40;;;17.00;99.90;;;;;;4864135;29;20417;-72
2021/09/15 06:06:28;;;;;;;0.90;0.50;;;17.10;99.90;;;;;;4894261;29;20433;-73
2021/09/15 06:08:59;;;;;;;0.90;0.50;;;17.20;99.90;;;;;;4894386;29;20534;-71
2021/09/15 06:11:28;;;;;;;0.90;0.40;;;17.20;99.90;;;;;;4862055;29;20474;-72
2021/09/15 06:13:57;;;;;;;0.90;0.40;;;17.30;99.90;;;;;;4877339;29;20973;-72
2021/09/15 06:16:26;;;;;;;0.90;0.50;;;17.30;99.90;;;;;;4860473;29;20534;-72
2021/09/15 06:18:54;;;;;;;0.90;0.50;;;17.40;99.90;;;;;;4860171;29;20453;-72
2021/09/15 06:21:38;;;;;;;0.90;0.40;;;17.50;99.90;;;;;;4875587;29;21010;-72
2021/09/15 06:24:35;;;;;;;0.90;0.40;;;17.40;99.90;;;;;;4826360;29;21086;-72
2021/09/15 06:27:03;;;;;;;0.90;0.40;;;17.40;99.90;;;;;;4860952;29;20437;-72
2021/09/15 06:29:33;;;;;;;0.90;0.50;;;17.50;99.90;;;;;;4880663;29;20428;-72
2021/09/15 06:32:01;;;;;;;0.90;0.50;;;17.50;99.90;;;;;;4880571;29;20469;-72
2021/09/15 06:34:29;;;;;;;0.90;0.40;;;17.50;99.90;;;;;;4864343;29;20800;-72
2021/09/15 06:36:57;;;;;;;0.90;0.40;;;17.70;99.90;;;;;;4879828;29;20439;-74
2021/09/15 06:39:26;;;;;;;0.90;0.50;;;17.80;99.90;;;;;;4888608;29;20690;-75
2021/09/15 06:41:54;;;;;;;0.90;0.40;;;17.90;99.90;;;;;;4889258;29;20431;-73
2021/09/15 06:44:23;;;;;;;0.90;0.40;;;18.10;99.90;;;;;;4864326;29;20921;-74
2021/09/15 06:46:53;;;;;;;0.90;0.40;;;18.20;99.90;;;;;;4881339;29;21042;-74
2021/09/15 06:49:21;;;;;;;0.90;0.40;;;18.30;99.90;;;;;;4882052;29;20442;-74
2021/09/15 06:51:49;;;;;;;0.90;0.40;;;18.40;99.90;;;;;;4880891;29;20458;-75
2021/09/15 06:54:18;;;;;;;0.90;0.40;;;18.40;99.90;;;;;;4879941;29;20491;-73
2021/09/15 06:56:46;;;;;;;0.90;0.40;;;18.40;99.90;;;;;;4881421;29;20793;-74
2021/09/15 06:59:15;;;;;;;0.90;0.40;;;18.30;99.90;;;;;;4882374;29;20832;-74
2021/09/15 07:01:43;;;;;;;0.90;0.40;;;18.30;99.90;;;;;;4881904;29;20463;-74
2021/09/15 07:04:13;;;;;;;0.90;0.40;;;18.30;99.90;;;;;;4882155;29;20506;-75
2021/09/15 07:06:41;;;;;;;0.90;0.40;;;18.30;99.90;;;;;;4864157;29;20770;-72
2021/09/15 07:09:10;;;;;;;0.90;0.40;;;18.50;99.90;;;;;;4881407;29;20813;-75
2021/09/15 07:11:38;;;;;;;0.90;0.40;;;18.70;99.90;;;;;;4882401;29;20446;-74
2021/09/15 07:14:06;;;;;;;0.90;0.40;;;19.00;99.90;;;;;;4880969;29;20962;-74
2021/09/15 07:16:35;;;;;;;0.90;0.40;;;19.40;99.90;;;;;;4880471;29;20506;-74
2021/09/15 07:19:03;;;;;;;1.60;1.23;;;19.70;99.90;;;;;;4880672;29;20481;-74
2021/09/15 07:21:33;;;;;;;0.90;0.40;;;19.80;99.90;;;;;;4880698;29;20777;-76
2021/09/15 07:24:01;;;;;;;0.90;0.40;;;19.90;99.90;;;;;;4881646;29;20456;-74
2021/09/15 07:26:29;;;;;;;0.90;0.40;;;19.90;99.90;;;;;;4894511;29;20787;-74
2021/09/15 07:28:57;;;;;;;0.90;0.40;;;19.90;99.90;;;;;;4892400;29;20434;-74
2021/09/15 07:31:26;;;;;;;0.90;0.40;;;19.90;99.90;;;;;;4894259;29;20470;-71
2021/09/15 07:33:54;;;;;;;0.90;0.40;;;20.00;99.90;;;;;;4895908;29;20431;-72
2021/09/15 07:36:22;;;;;;;0.90;0.40;;;20.00;99.90;;;;;;4880917;29;20466;-72
2021/09/15 07:38:52;;;;;;;0.90;0.40;;;20.00;99.90;;;;;;4878805;29;20482;-71
2021/09/15 07:41:20;;;;;;;0.90;0.40;;;20.40;99.90;;;;;;4879887;29;20426;-72
2021/09/15 07:43:48;;;;;;;0.90;0.40;;;20.60;99.90;;;;;;4880122;29;20443;-73
2021/09/15 07:46:21;;;;;;;0.90;0.60;;;20.90;99.90;;;;;;4880386;29;20454;-74
2021/09/15 07:48:49;;;;;;;0.90;0.40;;;20.90;99.90;;;;;;4880140;29;20463;-74
2021/09/15 07:51:18;;;;;;;0.90;0.40;;;21.00;99.90;;;;;;4879660;29;20884;-74
2021/09/15 07:53:46;;;;;;;0.90;0.40;;;21.30;99.90;;;;;;4879883;29;20435;-74
2021/09/15 07:56:16;;;;;;;0.90;0.40;;;21.40;99.90;;;;;;4878796;29;20517;-75
2021/09/15 07:58:45;;;;;;;0.90;0.40;;;21.70;99.90;;;;;;4879674;29;20937;-73
2021/09/15 08:01:13;;;;;;;0.90;0.40;;;22.00;99.90;;;;;;4879643;29;20481;-73
2021/09/15 08:03:41;;;;;;;0.90;0.40;;;22.10;99.90;;;;;;4879892;29;20951;-74
2021/09/15 08:06:09;;;;;;;0.90;0.40;;;21.90;99.90;;;;;;4879680;29;20467;-73
2021/09/15 08:08:37;;;;;;;0.90;0.40;;;21.90;99.90;;;;;;4909557;23;20968;-76
2021/09/15 08:11:09;;;;;;;0.90;0.40;;;21.90;99.90;;;;;;4899646;29;20420;-75
2021/09/15 08:13:38;;;;;;;0.90;0.40;;;22.30;99.90;;;;;;4916808;29;20392;-76
2021/09/15 08:16:07;;;;;;;0.90;0.40;;;22.30;99.90;;;;;;4916990;29;20468;-76
2021/09/15 08:18:35;;;;;;;0.90;0.40;;;22.40;99.90;;;;;;4916949;29;20889;-76
2021/09/15 08:21:04;;;;;;;0.90;0.40;;;22.50;99.90;;;;;;4916755;29;20400;-76
2021/09/15 08:23:33;;;;;;;0.90;0.40;;;22.60;99.90;;;;;;4916712;29;20433;-75
2021/09/15 08:26:01;;;;;;;0.90;0.40;;;22.60;99.90;;;;;;4916175;29;20423;-75
2021/09/15 08:28:29;;;;;;;0.90;0.40;;;22.50;99.90;;;;;;4915961;29;20489;-75
2021/09/15 08:30:59;;;;;;;0.90;0.50;;;22.30;99.90;;;;;;4915953;29;20434;-75
2021/09/15 08:33:28;;;;;;;0.90;0.40;;;22.20;99.90;;;;;;4916168;29;20970;-75
2021/09/15 08:35:56;;;;;;;0.90;0.40;;;22.10;99.90;;;;;;4916119;29;20441;-75
2021/09/15 08:38:24;;;;;;;0.90;0.40;;;22.20;99.90;;;;;;4915925;29;20512;-76
2021/09/15 08:40:54;;;;;;;0.90;0.40;;;22.40;99.90;;;;;;4916038;29;20430;-76
2021/09/15 08:43:22;;;;;;;0.90;0.40;;;22.40;99.90;;;;;;4900040;29;20489;-75
2021/09/15 08:45:51;;;;;;;0.90;0.40;;;22.40;99.90;;;;;;4913247;29;20520;-75
2021/09/15 08:48:21;;;;;;;0.90;0.40;;;22.40;99.90;;;;;;4915467;29;20412;-75
2021/09/15 08:50:50;;;;;;;0.90;0.40;;;22.20;99.90;;;;;;4903557;29;20422;-75
2021/09/15 08:53:18;;;;;;;0.90;0.40;;;22.20;99.90;;;;;;4934770;29;21001;-75
2021/09/15 08:55:47;;;;;;;0.90;0.40;;;22.30;99.90;;;;;;4935148;29;20379;-75
2021/09/15 08:58:16;;;;;;;0.90;0.40;;;22.40;99.90;;;;;;4934700;29;20476;-75
2021/09/15 09:00:46;;;;;;;0.90;0.40;;;22.40;99.90;;;;;;4919270;29;20425;-75
2021/09/15 09:03:15;;;;;;;0.90;0.40;;;22.40;99.90;;;;;;4915566;29;20432;-75
2021/09/15 09:05:44;;;;;;;0.90;0.40;;;22.30;99.90;;;;;;4916172;29;20396;-75
2021/09/15 09:08:22;;;;;;;0.90;0.40;;;22.30;99.90;;;;;;4914970;29;20408;-75
2021/09/15 09:10:53;;;;;;;0.90;0.40;;;22.30;99.90;;;;;;4898686;29;20961;-75
2021/09/15 09:13:21;;;;;;;0.90;0.40;;;22.30;99.90;;;;;;4915638;29;20764;-76
2021/09/15 09:15:52;;;;;;;0.90;0.40;;;22.30;99.90;;;;;;4915720;29;20955;-75
2021/09/15 09:18:21;;;;;;;0.90;0.40;;;22.40;99.90;;;;;;4913279;29;20427;-75
2021/09/15 09:20:50;;;;;;;0.90;0.40;;;22.50;99.90;;;;;;4916163;29;20439;-75
2021/09/15 09:23:39;;;;;;;0.90;0.40;;;22.70;99.90;;;;;;4926676;29;20434;-75
2021/09/15 09:26:08;;;;;;;0.90;0.40;;;22.90;99.90;;;;;;4906892;29;20457;-75
2021/09/15 09:28:40;;;;;;;0.90;0.40;;;23.10;99.90;;;;;;4902772;29;20756;-75
2021/09/15 09:31:11;;;;;;;0.90;0.40;;;23.30;99.90;;;;;;4915975;29;20822;-76
2021/09/15 09:34:03;;;;;;;0.90;0.40;;;23.40;99.90;;;;;;4898753;29;20521;-76
2021/09/15 09:36:33;;;;;;;1.20;0.87;;;23.80;99.90;;;;;;4915807;29;20508;-76
2021/09/15 09:39:11;;;;;;;0.90;0.40;;;24.00;99.90;;;;;;4899280;29;20600;-76
2021/09/15 09:41:39;;;;;;;0.90;0.50;;;24.10;99.90;;;;;;4923281;29;20857;-76
2021/09/15 09:44:07;;;;;;;0.90;0.40;;;24.10;99.90;;;;;;4927869;29;20435;-76
2021/09/15 09:46:41;;;;;;;0.90;0.40;;;24.00;99.90;;;;;;4926362;29;20492;-76
2021/09/15 09:49:21;;;;;;;0.90;0.40;;;23.80;99.90;;;;;;4921593;29;20483;-76
2021/09/15 09:51:54;;;;;;;0.90;0.40;;;23.80;99.90;;;;;;4933580;29;20444;-76
2021/09/15 09:54:25;;;;;;;0.90;0.40;;;23.90;99.90;;;;;;4933917;29;20964;-77
2021/09/15 09:56:58;;;;;;;0.90;0.40;;;24.10;99.90;;;;;;4916454;29;20911;-77
2021/09/15 09:59:26;;;;;;;0.90;0.40;;;24.20;99.90;;;;;;4933838;29;20971;-76
2021/09/15 10:01:57;;;;;;;0.93;0.47;;;24.50;99.90;;;;;;4933364;29;21026;-76
2021/09/15 10:04:27;;;;;;;0.93;0.40;;;24.90;99.90;;;;;;4933845;29;20428;-76
2021/09/15 10:06:57;;;;;;;1.00;0.50;;;25.00;99.90;;;;;;4933896;29;20432;-77
2021/09/15 10:09:26;;;;;;;1.00;0.40;;;25.10;99.90;;;;;;4916818;29;20448;-76
2021/09/15 10:11:57;;;;;;;0.90;0.40;;;24.90;99.90;;;;;;4898074;29;20435;-76
2021/09/15 10:14:27;;;;;;;0.90;0.40;;;24.90;99.90;;;;;;4897845;29;20481;-77
2021/09/15 10:16:58;;;;;;;0.97;0.50;;;25.10;99.90;;;;;;4914784;29;20425;-78
2021/09/15 10:19:31;;;;;;;0.97;0.40;;;25.10;99.90;;;;;;4914744;29;20454;-76
2021/09/15 10:22:02;;;;;;;0.90;0.40;;;25.30;99.90;;;;;;4914772;29;20421;-76
2021/09/15 10:24:51;;;;;;;0.90;0.40;;;25.60;99.90;;;;;;4915392;29;20520;-76
2021/09/15 10:27:21;;;;;;;1.00;0.40;;;25.80;99.90;;;;;;4915956;29;20407;-76
2021/09/15 10:30:04;;;;;;;1.00;0.40;;;26.20;99.90;;;;;;4913685;29;20461;-75
2021/09/15 10:32:33;;;;;;;1.00;0.40;;;26.20;99.90;;;;;;4916346;29;20437;-75
2021/09/15 10:35:03;;;;;;;1.00;0.40;;;26.20;99.90;;;;;;4917361;29;20936;-76
2021/09/15 10:37:50;;;;;;;1.00;0.40;;;26.20;99.90;;;;;;4916734;29;20457;-74
2021/09/15 10:40:39;;;;;;;1.00;0.40;;;26.20;99.90;;;;;;4898133;29;20751;-76
2021/09/15 10:43:44;;;;;;;1.10;0.60;;;26.10;99.90;;;;;;4914966;29;20941;-76
2021/09/15 10:46:24;;;;;;;1.00;0.40;;;25.80;99.90;;;;;;4908071;29;20464;-75
2021/09/15 10:49:31;;;;;;;1.00;0.40;;;25.60;99.90;;;;;;4899800;29;20458;-74
2021/09/15 10:52:28;;;;;;;0.90;0.40;;;25.50;99.90;;;;;;4921380;29;20410;-76
2021/09/15 10:55:00;;;;;;;0.90;0.40;;;25.50;99.90;;;;;;4911568;29;20459;-75
2021/09/15 10:57:35;;;;;;;1.00;0.40;;;25.60;99.90;;;;;;4914407;29;20434;-75
2021/09/15 11:00:08;;;;;;;0.90;0.40;;;25.90;99.90;;;;;;4897446;29;20475;-75
2021/09/15 11:02:37;;;;;;;0.90;0.40;;;25.80;99.90;;;;;;4912214;29;20434;-75
2021/09/15 11:05:41;;;;;;;0.90;0.40;;;25.70;99.90;;;;;;4904472;29;20486;-76
2021/09/15 11:08:39;;;;;;;1.00;0.40;;;25.90;99.90;;;;;;4879797;29;20435;-75
2021/09/15 11:11:10;;;;;;;0.90;0.40;;;25.90;99.90;;;;;;4863231;29;20435;-74
2021/09/15 11:13:51;;;;;;;0.90;0.40;;;25.90;99.90;;;;;;4863144;29;20479;-74
2021/09/15 11:16:32;;;;;;;0.90;0.40;;;25.90;99.90;;;;;;4882044;29;20430;-75
2021/09/15 11:19:04;;;;;;;0.90;0.40;;;25.80;99.90;;;;;;4891603;29;20514;-77
2021/09/15 11:21:34;;;;;;;0.90;0.40;;;25.80;99.90;;;;;;4900549;29;20430;-76
2021/09/15 11:24:10;;;;;;;0.90;0.40;;;25.80;99.90;;;;;;4901012;29;20490;-74
2021/09/15 11:26:43;;;;;;;1.00;0.60;;;25.80;99.90;;;;;;4900543;29;20453;-75
2021/09/15 11:29:12;;;;;;;0.93;0.40;;;25.80;99.90;;;;;;4900659;29;20996;-76
2021/09/15 11:31:42;;;;;;;1.00;0.70;;;25.80;99.90;;;;;;4900375;29;20490;-75
2021/09/15 11:34:13;;;;;;;0.90;0.40;;;25.60;99.90;;;;;;4899744;29;20476;-76
2021/09/15 11:36:50;;;;;;;0.90;0.40;;;25.70;99.90;;;;;;4900508;29;20442;-77
2021/09/15 11:39:22;;;;;;;1.00;0.40;;;25.70;99.90;;;;;;4900034;29;20453;-73
2021/09/15 11:42:01;;;;;;;0.90;0.40;;;25.90;99.90;;;;;;4900816;29;20699;-75
2021/09/15 11:44:29;;;;;;;0.90;0.40;;;25.90;99.90;;;;;;4901756;29;20430;-74
2021/09/15 11:47:01;;;;;;;0.90;0.40;;;26.00;99.90;;;;;;4900265;29;20913;-74
2021/09/15 11:49:32;;;;;;;0.90;0.40;;;26.00;99.90;;;;;;4900321;29;21013;-76
2021/09/15 11:52:02;;;;;;;0.90;0.40;;;25.90;99.90;;;;;;4915404;29;20449;-76
2021/09/15 11:54:30;;;;;;;0.90;0.50;;;25.90;99.90;;;;;;4900506;29;20919;-76
2021/09/15 11:57:08;;;;;;;1.00;0.40;;;26.00;99.90;;;;;;4883036;29;20470;-76
2021/09/15 11:59:37;;;;;;;0.90;0.40;;;25.90;99.90;;;;;;4883737;29;20558;-75
2021/09/15 12:02:09;;;;;;;0.90;0.40;;;25.90;99.90;;;;;;4883041;29;20990;-76
2021/09/15 12:04:40;;;;;;;0.93;0.47;;;25.80;99.90;;;;;;4900154;29;20430;-75
2021/09/15 12:07:09;;;;;;;0.90;0.40;;;25.70;99.90;;;;;;4882411;29;21007;-75
2021/09/15 12:09:38;;;;;;;0.90;0.40;;;25.70;99.90;;;;;;4912913;29;20511;-74
2021/09/15 12:12:10;;;;;;;0.90;0.40;;;25.80;99.90;;;;;;4902882;29;20410;-76
2021/09/15 12:14:38;;;;;;;0.90;0.40;;;25.80;99.90;;;;;;4917792;29;20448;-75
2021/09/15 12:17:07;;;;;;;0.90;0.40;;;25.70;99.90;;;;;;4916639;29;20788;-75
2021/09/15 12:19:37;;;;;;;0.90;0.40;;;25.80;99.90;;;;;;4918502;29;20508;-75
2021/09/15 12:22:05;;;;;;;0.90;0.40;;;26.00;99.90;;;;;;4917773;29;20500;-75
2021/09/15 12:24:33;;;;;;;0.90;0.40;;;26.00;99.90;;;;;;4919346;29;20591;-76
2021/09/15 12:27:15;;;;;;;1.00;0.40;;;26.30;99.90;;;;;;4920572;29;20413;-75
2021/09/15 12:29:44;;;;;;;1.00;0.40;;;26.50;99.90;;;;;;4902040;29;20985;-76
2021/09/15 12:32:13;;;;;;;1.00;0.50;;;26.60;99.90;;;;;;4918350;29;20437;-75
2021/09/15 12:34:44;;;;;;;0.93;0.40;;;26.90;99.90;;;;;;4901977;29;20796;-76
2021/09/15 12:37:14;;;;;;;1.00;0.40;;;26.90;99.90;;;;;;4918047;29;20509;-75
2021/09/15 12:39:47;;;;;;;1.00;0.40;;;27.00;99.90;;;;;;4900881;29;21013;-75
2021/09/15 12:42:18;;;;;;;0.97;0.40;;;27.00;99.90;;;;;;4901423;29;20419;-79
2021/09/15 12:44:46;;;;;;;1.00;0.40;;;26.80;99.90;;;;;;4920850;29;20439;-75
2021/09/15 12:47:15;;;;;;;1.00;0.40;;;26.40;99.90;;;;;;4936625;29;20456;-77
2021/09/15 12:49:44;;;;;;;0.90;0.40;;;26.20;99.90;;;;;;4936388;29;20667;-76
2021/09/15 12:52:15;;;;;;;0.90;0.40;;;25.90;99.90;;;;;;4920354;29;20465;-75
2021/09/15 12:54:53;;;;;;;1.00;0.40;;;25.80;99.90;;;;;;4901673;29;20883;-76
2021/09/15 12:57:27;;;;;;;0.90;0.40;;;25.50;99.90;;;;;;4917287;29;20440;-76
2021/09/15 12:59:55;;;;;;;0.90;0.40;;;25.20;99.90;;;;;;4916847;29;20452;-76
2021/09/15 13:02:28;;;;;;;0.90;0.40;;;25.00;99.90;;;;;;4916317;29;20432;-76
2021/09/15 13:04:57;;;;;;;0.90;0.40;;;24.90;99.90;;;;;;4915993;29;20896;-75
2021/09/15 13:07:26;;;;;;;1.00;0.40;;;24.80;99.90;;;;;;4915933;29;20432;-74
2021/09/15 13:09:55;;;;;;;0.97;0.40;;;24.60;99.90;;;;;;4898863;29;20824;-74
2021/09/15 13:12:24;;;;;;;1.00;0.40;;;24.20;99.90;;;;;;4916150;29;20966;-73
2021/09/15 13:14:54;;;;;;;0.90;0.40;;;23.80;99.90;;;;;;4916141;29;20459;-75
2021/09/15 13:17:23;;;;;;;0.90;0.40;;;23.40;99.90;;;;;;4915880;29;20920;-75
2021/09/15 13:19:51;;;;;;;0.90;0.40;;;23.00;99.90;;;;;;4915258;29;20454;-74
2021/09/15 13:22:19;;;;;;;0.90;0.40;;;22.60;99.90;;;;;;4915350;29;20453;-75